sensor_id;sensor_type;location;lat;lon;timestamp;pressure;altitude;pressure_sealevel;temperature;humidity
53689;BME280;39583;54.682;30.662;2022-12-22T07:28:28;98884.53;;;1.13;100.00
53689;BME280;39583;54.682;30.662;2022-12-22T07:30:54;98875.63;;;1.37;100.00
53689;BME280;39583;54.682;30.662;2022-12-22T07:33:20;98873.50;;;1.55;100.00
53689;BME280;39583;54.682;30.662;2022-12-22T07:35:47;98869.25;;;1.69;100.00
53689;BME280;39583;54.682;30.662;2022-12-22T07:38:13;98867.38;;;1.77;100.00
53689;BME280;39583;54.682;30.662;2022-12-22T07:40:39;98865.19;;;1.81;100.00
53689;BME280;39583;54.682;30.662;2022-12-22T07:43:05;98878.84;;;1.93;100.00
53689;BME280;39583;54.682;30.662;2022-12-22T07:45:32;98878.97;;;1.99;100.00
53689;BME280;39583;54.682;30.662;2022-12-22T07:47:59;98876.59;;;2.04;100.00
53689;BME280;39583;54.682;30.662;2022-12-22T07:50:26;98882.72;;;2.05;100.00
53689;BME280;39583;54.682;30.662;2022-12-22T07:53:11;98885.88;;;2.09;100.00
53689;BME280;39583;54.682;30.662;2022-12-22T07:55:37;98895.31;;;2.11;100.00
53689;BME280;39583;54.682;30.662;2022-12-22T07:58:03;98891.91;;;2.17;100.00
53689;BME280;39583;54.682;30.662;2022-12-22T08:00:29;98889.56;;;2.22;100.00
53689;BME280;39583;54.682;30.662;2022-12-22T08:02:56;98878.84;;;2.30;100.00
53689;BME280;39583;54.682;30.662;2022-12-22T08:05:23;98869.34;;;2.36;100.00
53689;BME280;39583;54.682;30.662;2022-12-22T08:07:50;98871.19;;;2.50;100.00
53689;BME280;39583;54.682;30.662;2022-12-22T08:10:19;98879.88;;;2.59;100.00
53689;BME280;39583;54.682;30.662;2022-12-22T08:12:46;98847.09;;;2.52;100.00
53689;BME280;39583;54.682;30.662;2022-12-22T08:15:12;98859.63;;;2.73;100.00
53689;BME280;39583;54.682;30.662;2022-12-22T08:17:38;98856.63;;;2.76;100.00
53689;BME280;39583;54.682;30.662;2022-12-22T08:20:05;98857.78;;;2.73;100.00
53689;BME280;39583;54.682;30.662;2022-12-22T08:22:31;98849.53;;;2.68;100.00
53689;BME280;39583;54.682;30.662;2022-12-22T08:24:58;98846.06;;;2.67;100.00
53689;BME280;39583;54.682;30.662;2022-12-22T08:27:34;98847.53;;;2.70;100.00
53689;BME280;39583;54.682;30.662;2022-12-22T08:30:05;98839.84;;;2.75;100.00
53689;BME280;39583;54.682;30.662;2022-12-22T08:32:33;98838.00;;;2.76;100.00
53689;BME280;39583;54.682;30.662;2022-12-22T08:35:00;98843.78;;;2.79;100.00
53689;BME280;39583;54.682;30.662;2022-12-22T08:37:27;98850.72;;;2.80;100.00
53689;BME280;39583;54.682;30.662;2022-12-22T08:40:02;98852.75;;;2.78;100.00
53689;BME280;39583;54.682;30.662;2022-12-22T08:42:30;98853.75;;;2.77;100.00
53689;BME280;39583;54.682;30.662;2022-12-22T08:44:56;98860.72;;;2.78;100.00
53689;BME280;39583;54.682;30.662;2022-12-22T08:47:22;98858.91;;;2.79;100.00
53689;BME280;39583;54.682;30.662;2022-12-22T08:49:48;98862.00;;;2.82;100.00
53689;BME280;39583;54.682;30.662;2022-12-22T08:52:15;98861.47;;;2.87;100.00
53689;BME280;39583;54.682;30.662;2022-12-22T08:54:42;98858.97;;;2.85;100.00
53689;BME280;39583;54.682;30.662;2022-12-22T08:57:08;98858.81;;;2.87;100.00
53689;BME280;39583;54.682;30.662;2022-12-22T08:59:35;98858.25;;;2.91;100.00
53689;BME280;39583;54.682;30.662;2022-12-22T09:02:01;98851.00;;;2.85;100.00
53689;BME280;39583;54.682;30.662;2022-12-22T09:04:31;98850.66;;;2.88;100.00
53689;BME280;39583;54.682;30.662;2022-12-22T09:06:58;98866.22;;;2.91;100.00
53689;BME280;39583;54.682;30.662;2022-12-22T09:09:25;98863.19;;;2.94;100.00
53689;BME280;39583;54.682;30.662;2022-12-22T09:11:51;98853.19;;;2.96;100.00
53689;BME280;39583;54.682;30.662;2022-12-22T09:14:17;98854.63;;;2.99;100.00
53689;BME280;39583;54.682;30.662;2022-12-22T09:16:43;98851.44;;;3.04;100.00
53689;BME280;39583;54.682;30.662;2022-12-22T09:19:09;98850.69;;;3.10;100.00
53689;BME280;39583;54.682;30.662;2022-12-22T09:21:35;98855.47;;;3.14;100.00
53689;BME280;39583;54.682;30.662;2022-12-22T09:24:02;98847.66;;;3.13;100.00
53689;BME280;39583;54.682;30.662;2022-12-22T09:26:29;98827.13;;;3.07;100.00
53689;BME280;39583;54.682;30.662;2022-12-22T09:28:57;98842.31;;;3.28;100.00
53689;BME280;39583;54.682;30.662;2022-12-22T09:31:24;98845.03;;;3.34;100.00
53689;BME280;39583;54.682;30.662;2022-12-22T09:33:51;98846.94;;;3.40;100.00
53689;BME280;39583;54.682;30.662;2022-12-22T09:36:23;98840.41;;;3.43;100.00
53689;BME280;39583;54.682;30.662;2022-12-22T09:38:50;98838.50;;;3.37;100.00
53689;BME280;39583;54.682;30.662;2022-12-22T09:41:42;98840.13;;;3.38;100.00
53689;BME280;39583;54.682;30.662;2022-12-22T09:46:46;98842.94;;;3.51;100.00
53689;BME280;39583;54.682;30.662;2022-12-22T09:49:15;98835.78;;;3.51;100.00
53689;BME280;39583;54.682;30.662;2022-12-22T09:51:46;98824.25;;;3.44;100.00
53689;BME280;39583;54.682;30.662;2022-12-22T09:54:13;98833.78;;;3.53;100.00
53689;BME280;39583;54.682;30.662;2022-12-22T09:56:39;98833.78;;;3.53;100.00
53689;BME280;39583;54.682;30.662;2022-12-22T09:59:13;98824.97;;;3.53;100.00
53689;BME280;39583;54.682;30.662;2022-12-22T10:09:44;98825.97;;;3.52;100.00
53689;BME280;39583;54.682;30.662;2022-12-22T10:12:15;98843.75;;;3.51;100.00
53689;BME280;39583;54.682;30.662;2022-12-22T10:14:45;98840.22;;;3.44;100.00
53689;BME280;39583;54.682;30.662;2022-12-22T10:17:29;98827.41;;;3.33;100.00
53689;BME280;39583;54.682;30.662;2022-12-22T10:20:18;98832.34;;;3.36;100.00
53689;BME280;39583;54.682;30.662;2022-12-22T10:22:53;98841.09;;;3.30;100.00
53689;BME280;39583;54.682;30.662;2022-12-22T10:25:33;98836.97;;;3.28;100.00
53689;BME280;39583;54.682;30.662;2022-12-22T10:28:06;98830.56;;;3.22;99.99
53689;BME280;39583;54.682;30.662;2022-12-22T10:30:36;98841.78;;;3.17;99.88
53689;BME280;39583;54.682;30.662;2022-12-22T10:33:16;98837.38;;;3.10;99.86
53689;BME280;39583;54.682;30.662;2022-12-22T10:38:14;98830.03;;;3.12;100.00
53689;BME280;39583;54.682;30.662;2022-12-22T10:40:42;98829.41;;;3.10;99.94
53689;BME280;39583;54.682;30.662;2022-12-22T10:43:21;98824.66;;;3.05;99.73
53689;BME280;39583;54.682;30.662;2022-12-22T10:45:49;98817.41;;;2.99;99.60
53689;BME280;39583;54.682;30.662;2022-12-22T10:48:16;98806.13;;;2.97;99.64
53689;BME280;39583;54.682;30.662;2022-12-22T10:50:49;98812.09;;;2.99;99.55
53689;BME280;39583;54.682;30.662;2022-12-22T10:53:15;98804.56;;;3.03;99.89
53689;BME280;39583;54.682;30.662;2022-12-22T10:55:42;98802.34;;;3.06;99.73
53689;BME280;39583;54.682;30.662;2022-12-22T11:00:37;98789.59;;;3.16;99.79
53689;BME280;39583;54.682;30.662;2022-12-22T11:03:04;98779.56;;;3.18;99.72
53689;BME280;39583;54.682;30.662;2022-12-22T11:05:32;98784.50;;;3.21;99.44
53689;BME280;39583;54.682;30.662;2022-12-22T11:08:18;98785.28;;;3.15;98.91
53689;BME280;39583;54.682;30.662;2022-12-22T11:16:07;98783.97;;;3.26;99.64
53689;BME280;39583;54.682;30.662;2022-12-22T11:27:45;98804.25;;;3.12;
53689;BME280;39583;54.682;30.662;2022-12-22T11:30:26;98815.91;;;3.11;98.87
53689;BME280;39583;54.682;30.662;2022-12-22T11:36:02;98803.00;;;3.08;98.79
53689;BME280;39583;54.682;30.662;2022-12-22T11:44:00;98806.41;;;3.02;98.58
53689;BME280;39583;54.682;30.662;2022-12-22T11:54:59;98804.91;;;2.78;98.21
53689;BME280;39583;54.682;30.662;2022-12-22T11:57:39;98798.31;;;2.74;98.06
53689;BME280;39583;54.682;30.662;2022-12-22T12:12:06;98807.22;;;2.52;97.90
53689;BME280;39583;54.682;30.662;2022-12-22T12:25:42;98817.56;;;2.32;98.01
53689;BME280;39583;54.682;30.662;2022-12-22T12:28:26;98810.72;;;2.23;97.98
53689;BME280;39583;54.682;30.662;2022-12-22T12:30:59;98833.16;;;2.35;98.20
53689;BME280;39583;54.682;30.662;2022-12-22T12:39:41;98825.81;;;2.37;98.01
53689;BME280;39583;54.682;30.662;2022-12-22T12:44:40;98823.34;;;2.35;97.97
53689;BME280;39583;54.682;30.662;2022-12-22T12:47:28;98818.19;;;2.34;97.98
53689;BME280;39583;54.682;30.662;2022-12-22T12:50:29;98815.38;;;2.35;97.72
53689;BME280;39583;54.682;30.662;2022-12-22T12:55:32;98811.72;;;2.36;97.29
53689;BME280;39583;54.682;30.662;2022-12-22T12:58:00;98806.75;;;2.33;97.44
53689;BME280;39583;54.682;30.662;2022-12-22T13:03:07;98840.38;;;2.26;97.69
53689;BME280;39583;54.682;30.662;2022-12-22T13:05:52;98839.25;;;2.21;97.40
53689;BME280;39583;54.682;30.662;2022-12-22T13:08:27;98835.50;;;2.15;97.48
53689;BME280;39583;54.682;30.662;2022-12-22T13:15:48;98814.44;;;1.99;97.76
53689;BME280;39583;54.682;30.662;2022-12-22T13:23:34;98814.44;;;1.99;97.70
53689;BME280;39583;54.682;30.662;2022-12-22T13:28:36;98818.56;;;2.01;97.66
53689;BME280;39583;54.682;30.662;2022-12-22T13:31:20;98819.38;;;2.02;97.61
53689;BME280;39583;54.682;30.662;2022-12-22T13:34:05;98815.25;;;1.99;97.69
53689;BME280;39583;54.682;30.662;2022-12-22T13:36:32;98816.72;;;2.02;97.24
53689;BME280;39583;54.682;30.662;2022-12-22T13:39:04;98816.72;;;2.02;97.55
53689;BME280;39583;54.682;30.662;2022-12-22T13:41:32;98808.56;;;2.03;97.67
53689;BME280;39583;54.682;30.662;2022-12-22T13:44:13;98796.84;;;1.98;97.15
53689;BME280;39583;54.682;30.662;2022-12-22T13:46:41;98805.00;;;1.96;97.71
53689;BME280;39583;54.682;30.662;2022-12-22T13:49:11;98796.38;;;1.94;97.63
53689;BME280;39583;54.682;30.662;2022-12-22T13:51:40;98799.22;;;1.93;97.79
53689;BME280;39583;54.682;30.662;2022-12-22T13:54:16;98796.56;;;1.93;97.80
53689;BME280;39583;54.682;30.662;2022-12-22T13:56:48;98786.31;;;1.90;97.96
53689;BME280;39583;54.682;30.662;2022-12-22T13:59:25;98788.97;;;1.90;97.61
53689;BME280;39583;54.682;30.662;2022-12-22T14:01:58;98803.25;;;1.89;98.04
53689;BME280;39583;54.682;30.662;2022-12-22T14:04:25;98812.28;;;1.94;98.34
53689;BME280;39583;54.682;30.662;2022-12-22T14:06:51;98812.28;;;1.94;98.30
53689;BME280;39583;54.682;30.662;2022-12-22T14:09:22;98815.78;;;1.95;98.21
53689;BME280;39583;54.682;30.662;2022-12-22T14:14:30;98810.00;;;1.91;98.36
53689;BME280;39583;54.682;30.662;2022-12-22T14:16:58;98800.22;;;1.92;98.37
53689;BME280;39583;54.682;30.662;2022-12-22T14:19:29;98801.03;;;1.92;98.45
53689;BME280;39583;54.682;30.662;2022-12-22T14:22:05;98797.94;;;1.89;97.89
53689;BME280;39583;54.682;30.662;2022-12-22T14:24:49;98795.09;;;1.90;98.43
53689;BME280;39583;54.682;30.662;2022-12-22T14:27:35;98807.34;;;1.91;98.06
53689;BME280;39583;54.682;30.662;2022-12-22T14:30:06;98826.13;;;1.90;98.39
53689;BME280;39583;54.682;30.662;2022-12-22T14:32:49;98834.91;;;1.90;98.45
53689;BME280;39583;54.682;30.662;2022-12-22T14:40:33;98851.47;;;1.92;98.49
53689;BME280;39583;54.682;30.662;2022-12-22T14:43:03;98856.78;;;1.92;98.64
53689;BME280;39583;54.682;30.662;2022-12-22T14:45:30;98862.94;;;1.93;98.22
53689;BME280;39583;54.682;30.662;2022-12-22T14:47:56;98836.16;;;1.80;98.23
53689;BME280;39583;54.682;30.662;2022-12-22T14:50:25;98845.06;;;1.87;98.22
53689;BME280;39583;54.682;30.662;2022-12-22T14:53:01;98850.38;;;1.87;98.27
53689;BME280;39583;54.682;30.662;2022-12-22T14:55:33;98838.47;;;1.83;98.09
53689;BME280;39583;54.682;30.662;2022-12-22T15:00:40;98835.97;;;1.81;98.42
53689;BME280;39583;54.682;30.662;2022-12-22T15:03:35;98848.44;;;1.81;98.12
53689;BME280;39583;54.682;30.662;2022-12-22T15:06:21;98843.31;;;1.79;98.29
53689;BME280;39583;54.682;30.662;2022-12-22T15:08:49;98854.75;;;1.80;98.18
53689;BME280;39583;54.682;30.662;2022-12-22T15:11:22;98847.41;;;1.82;98.29
53689;BME280;39583;54.682;30.662;2022-12-22T15:13:49;98852.72;;;1.82;98.38
53689;BME280;39583;54.682;30.662;2022-12-22T15:16:19;98849.09;;;1.83;98.01
53689;BME280;39583;54.682;30.662;2022-12-22T15:18:46;98847.59;;;1.80;98.13
53689;BME280;39583;54.682;30.662;2022-12-22T15:21:15;98848.78;;;1.77;97.98
53689;BME280;39583;54.682;30.662;2022-12-22T15:23:42;98841.56;;;1.71;98.26
53689;BME280;39583;54.682;30.662;2022-12-22T15:26:08;98843.84;;;1.74;98.00
53689;BME280;39583;54.682;30.662;2022-12-22T15:28:35;98817.25;;;1.60;97.97
53689;BME280;39583;54.682;30.662;2022-12-22T15:31:02;98838.91;;;1.71;98.03
53689;BME280;39583;54.682;30.662;2022-12-22T15:33:29;98836.25;;;1.71;98.11
53689;BME280;39583;54.682;30.662;2022-12-22T15:35:56;98835.88;;;1.74;98.32
53689;BME280;39583;54.682;30.662;2022-12-22T15:38:24;98826.91;;;1.75;98.07
53689;BME280;39583;54.682;30.662;2022-12-22T15:40:51;98815.66;;;1.73;98.24
53689;BME280;39583;54.682;30.662;2022-12-22T15:43:17;98819.59;;;1.77;98.03
53689;BME280;39583;54.682;30.662;2022-12-22T15:45:44;98824.06;;;1.77;98.13
53689;BME280;39583;54.682;30.662;2022-12-22T15:48:21;98827.56;;;1.77;98.00
53689;BME280;39583;54.682;30.662;2022-12-22T15:50:48;98834.69;;;1.77;98.21
53689;BME280;39583;54.682;30.662;2022-12-22T15:53:17;98820.59;;;1.76;98.20
53689;BME280;39583;54.682;30.662;2022-12-22T15:55:50;98811.03;;;1.67;97.88
53689;BME280;39583;54.682;30.662;2022-12-22T15:58:20;98825.91;;;1.76;97.94
53689;BME280;39583;54.682;30.662;2022-12-22T16:00:48;98827.91;;;1.74;98.09
53689;BME280;39583;54.682;30.662;2022-12-22T16:03:16;98832.41;;;1.74;97.97
53689;BME280;39583;54.682;30.662;2022-12-22T16:05:44;98833.41;;;1.73;97.99
53689;BME280;39583;54.682;30.662;2022-12-22T16:08:16;98838.72;;;1.73;97.91
53689;BME280;39583;54.682;30.662;2022-12-22T16:10:44;98837.72;;;1.74;97.99
53689;BME280;39583;54.682;30.662;2022-12-22T16:13:13;98843.84;;;1.74;98.17
53689;BME280;39583;54.682;30.662;2022-12-22T16:15:40;98849.44;;;1.80;98.03
53689;BME280;39583;54.682;30.662;2022-12-22T16:18:09;98842.28;;;1.80;97.93
53689;BME280;39583;54.682;30.662;2022-12-22T16:20:38;98843.94;;;1.81;98.10
53689;BME280;39583;54.682;30.662;2022-12-22T16:23:06;98835.97;;;1.81;98.13
53689;BME280;39583;54.682;30.662;2022-12-22T16:25:37;98829.56;;;1.75;97.93
53689;BME280;39583;54.682;30.662;2022-12-22T16:28:04;98831.03;;;1.78;97.92
53689;BME280;39583;54.682;30.662;2022-12-22T16:30:32;98826.91;;;1.75;97.64
53689;BME280;39583;54.682;30.662;2022-12-22T16:32:59;98829.94;;;1.72;97.81
53689;BME280;39583;54.682;30.662;2022-12-22T16:35:28;98827.66;;;1.69;97.97
53689;BME280;39583;54.682;30.662;2022-12-22T16:37:56;98803.00;;;1.61;98.02
53689;BME280;39583;54.682;30.662;2022-12-22T16:40:23;98819.31;;;1.72;97.79
53689;BME280;39583;54.682;30.662;2022-12-22T16:43:09;98821.34;;;1.70;97.84
53689;BME280;39583;54.682;30.662;2022-12-22T16:45:37;98814.72;;;1.66;97.61
53689;BME280;39583;54.682;30.662;2022-12-22T16:48:06;98809.75;;;1.63;98.04
53689;BME280;39583;54.682;30.662;2022-12-22T16:50:36;98794.84;;;1.62;98.16
53689;BME280;39583;54.682;30.662;2022-12-22T16:53:04;98801.44;;;1.66;98.12
53689;BME280;39583;54.682;30.662;2022-12-22T16:55:31;98800.34;;;1.61;98.02
53689;BME280;39583;54.682;30.662;2022-12-22T16:57:58;98797.97;;;1.66;98.04
53689;BME280;39583;54.682;30.662;2022-12-22T17:00:27;98802.81;;;1.62;97.69
53689;BME280;39583;54.682;30.662;2022-12-22T17:03:00;98802.00;;;1.62;98.46
53689;BME280;39583;54.682;30.662;2022-12-22T17:05:45;98797.50;;;1.62;98.17
53689;BME280;39583;54.682;30.662;2022-12-22T17:08:21;98792.84;;;1.64;98.30
53689;BME280;39583;54.682;30.662;2022-12-22T17:10:49;98792.28;;;1.69;98.38
53689;BME280;39583;54.682;30.662;2022-12-22T17:13:17;98791.94;;;1.72;98.50
53689;BME280;39583;54.682;30.662;2022-12-22T17:15:44;98766.50;;;1.63;98.49
53689;BME280;39583;54.682;30.662;2022-12-22T17:18:18;98781.63;;;1.77;98.26
53689;BME280;39583;54.682;30.662;2022-12-22T17:20:47;98783.06;;;1.80;98.31
53689;BME280;39583;54.682;30.662;2022-12-22T17:23:31;98771.44;;;1.81;98.05
53689;BME280;39583;54.682;30.662;2022-12-22T17:26:01;98771.44;;;1.81;97.93
53689;BME280;39583;54.682;30.662;2022-12-22T17:28:34;98773.28;;;1.80;97.84
53689;BME280;39583;54.682;30.662;2022-12-22T17:31:04;98770.44;;;1.82;97.90
53689;BME280;39583;54.682;30.662;2022-12-22T17:33:31;98763.50;;;1.81;98.02
53689;BME280;39583;54.682;30.662;2022-12-22T17:35:58;98774.59;;;1.84;97.96
53689;BME280;39583;54.682;30.662;2022-12-22T17:38:28;98729.69;;;1.60;97.84
53689;BME280;39583;54.682;30.662;2022-12-22T17:40:54;98771.94;;;1.84;97.86
53689;BME280;39583;54.682;30.662;2022-12-22T17:43:23;98764.44;;;1.88;97.85
53689;BME280;39583;54.682;30.662;2022-12-22T17:45:51;98763.97;;;1.84;98.01
53689;BME280;39583;54.682;30.662;2022-12-22T17:48:19;98763.78;;;1.86;98.07
53689;BME280;39583;54.682;30.662;2022-12-22T17:50:46;98772.75;;;1.85;97.82
53689;BME280;39583;54.682;30.662;2022-12-22T17:53:17;98777.06;;;1.86;97.76
53689;BME280;39583;54.682;30.662;2022-12-22T17:55:46;98777.06;;;1.86;98.02
53689;BME280;39583;54.682;30.662;2022-12-22T17:58:15;98780.34;;;1.88;98.19
53689;BME280;39583;54.682;30.662;2022-12-22T18:00:43;98783.84;;;1.88;98.13
53689;BME280;39583;54.682;30.662;2022-12-22T18:03:13;98787.13;;;1.90;98.04
53689;BME280;39583;54.682;30.662;2022-12-22T18:05:45;98789.78;;;1.90;97.74
53689;BME280;39583;54.682;30.662;2022-12-22T18:08:18;98776.88;;;1.87;98.05
53689;BME280;39583;54.682;30.662;2022-12-22T18:10:48;98772.75;;;1.85;97.79
53689;BME280;39583;54.682;30.662;2022-12-22T18:13:18;98770.28;;;1.83;97.76
53689;BME280;39583;54.682;30.662;2022-12-22T18:15:46;98764.16;;;1.83;97.87
53689;BME280;39583;54.682;30.662;2022-12-22T18:18:14;98761.66;;;1.81;97.83
53689;BME280;39583;54.682;30.662;2022-12-22T18:20:42;98759.00;;;1.81;97.89
53689;BME280;39583;54.682;30.662;2022-12-22T18:23:15;98759.19;;;1.80;97.59
53689;BME280;39583;54.682;30.662;2022-12-22T18:25:43;98756.53;;;1.80;97.57
53689;BME280;39583;54.682;30.662;2022-12-22T18:28:14;98766.13;;;1.81;97.84
53689;BME280;39583;54.682;30.662;2022-12-22T18:30:42;98763.50;;;1.81;97.69
53689;BME280;39583;54.682;30.662;2022-12-22T18:33:08;98767.78;;;1.82;97.61
53689;BME280;39583;54.682;30.662;2022-12-22T18:35:36;98763.31;;;1.82;97.81
53689;BME280;39583;54.682;30.662;2022-12-22T18:38:03;98763.31;;;1.82;97.65
53689;BME280;39583;54.682;30.662;2022-12-22T18:40:33;98767.97;;;1.80;97.84
53689;BME280;39583;54.682;30.662;2022-12-22T18:43:00;98760.19;;;1.78;97.67
53689;BME280;39583;54.682;30.662;2022-12-22T18:45:29;98765.50;;;1.78;97.59
53689;BME280;39583;54.682;30.662;2022-12-22T18:47:56;98761.84;;;1.80;97.89
53689;BME280;39583;54.682;30.662;2022-12-22T18:50:25;98760.66;;;1.82;97.92
53689;BME280;39583;54.682;30.662;2022-12-22T18:52:55;98757.66;;;1.85;97.75
53689;BME280;39583;54.682;30.662;2022-12-22T18:55:25;98756.47;;;1.88;97.84
53689;BME280;39583;54.682;30.662;2022-12-22T18:57:53;98756.28;;;1.89;97.66
53689;BME280;39583;54.682;30.662;2022-12-22T19:00:25;98747.94;;;1.92;97.67
53689;BME280;39583;54.682;30.662;2022-12-22T19:02:56;98746.13;;;1.93;97.73
53689;BME280;39583;54.682;30.662;2022-12-22T19:05:25;98737.50;;;1.91;97.36
53689;BME280;39583;54.682;30.662;2022-12-22T19:07:52;98742.75;;;1.84;97.44
53689;BME280;39583;54.682;30.662;2022-12-22T19:13:03;98745.47;;;1.91;97.82
53689;BME280;39583;54.682;30.662;2022-12-22T19:15:36;98739.16;;;1.92;97.68
53689;BME280;39583;54.682;30.662;2022-12-22T19:18:04;98741.16;;;1.90;97.63
53689;BME280;39583;54.682;30.662;2022-12-22T19:20:31;98731.81;;;1.79;97.33
53689;BME280;39583;54.682;30.662;2022-12-22T19:22:57;98741.16;;;1.90;97.77
53689;BME280;39583;54.682;30.662;2022-12-22T19:25:30;98742.81;;;1.91;97.72
53689;BME280;39583;54.682;30.662;2022-12-22T19:28:04;98740.16;;;1.91;97.54
53689;BME280;39583;54.682;30.662;2022-12-22T19:30:31;98734.03;;;1.90;97.38
53689;BME280;39583;54.682;30.662;2022-12-22T19:33:00;98744.84;;;1.89;97.47
53689;BME280;39583;54.682;30.662;2022-12-22T19:35:31;98744.66;;;1.90;97.35
53689;BME280;39583;54.682;30.662;2022-12-22T19:37:57;98737.06;;;1.87;97.42
53689;BME280;39583;54.682;30.662;2022-12-22T19:40:28;98739.97;;;1.92;97.46
53689;BME280;39583;54.682;30.662;2022-12-22T19:42:57;98747.31;;;1.90;97.50
53689;BME280;39583;54.682;30.662;2022-12-22T19:45:32;98733.22;;;1.90;97.52
53689;BME280;39583;54.682;30.662;2022-12-22T19:48:03;98735.03;;;1.89;97.20
53689;BME280;39583;54.682;30.662;2022-12-22T19:50:30;98726.00;;;1.84;97.66
53689;BME280;39583;54.682;30.662;2022-12-22T19:52:57;98719.03;;;1.83;97.41
53689;BME280;39583;54.682;30.662;2022-12-22T19:55:27;98730.94;;;1.87;97.48
53689;BME280;39583;54.682;30.662;2022-12-22T19:57:54;98727.00;;;1.83;97.27
53689;BME280;39583;54.682;30.662;2022-12-22T20:00:23;98734.59;;;1.86;97.41
53689;BME280;39583;54.682;30.662;2022-12-22T20:02:52;98723.78;;;1.87;97.52
53689;BME280;39583;54.682;30.662;2022-12-22T20:05:29;98713.81;;;1.89;97.47
53689;BME280;39583;54.682;30.662;2022-12-22T20:07:58;98719.75;;;1.91;97.48
53689;BME280;39583;54.682;30.662;2022-12-22T20:10:27;98723.59;;;1.89;97.42
53689;BME280;39583;54.682;30.662;2022-12-22T20:12:56;98716.47;;;1.89;97.34
53689;BME280;39583;54.682;30.662;2022-12-22T20:15:33;98719.31;;;1.88;97.46
53689;BME280;39583;54.682;30.662;2022-12-22T20:18:00;98711.34;;;1.88;97.50
53689;BME280;39583;54.682;30.662;2022-12-22T20:20:36;98712.97;;;1.89;97.60
53689;BME280;39583;54.682;30.662;2022-12-22T20:23:20;98710.97;;;1.91;97.81
53689;BME280;39583;54.682;30.662;2022-12-22T20:25:50;98704.66;;;1.92;97.36
53689;BME280;39583;54.682;30.662;2022-12-22T20:28:23;98693.22;;;1.91;97.49
53689;BME280;39583;54.682;30.662;2022-12-22T20:30:50;98704.75;;;1.98;97.49
53689;BME280;39583;54.682;30.662;2022-12-22T20:33:18;98700.06;;;2.00;97.21
53689;BME280;39583;54.682;30.662;2022-12-22T20:35:46;98705.84;;;2.04;97.77
53689;BME280;39583;54.682;30.662;2022-12-22T20:38:26;98695.22;;;2.04;97.42
53689;BME280;39583;54.682;30.662;2022-12-22T20:40:54;98700.16;;;2.07;97.83
53689;BME280;39583;54.682;30.662;2022-12-22T20:43:22;98691.84;;;2.10;97.94
53689;BME280;39583;54.682;30.662;2022-12-22T20:45:51;98692.28;;;2.14;97.86
53689;BME280;39583;54.682;30.662;2022-12-22T20:48:34;98695.31;;;2.11;97.57
53689;BME280;39583;54.682;30.662;2022-12-22T20:51:02;98696.50;;;2.08;97.37
53689;BME280;39583;54.682;30.662;2022-12-22T20:53:29;98696.50;;;2.08;97.45
53689;BME280;39583;54.682;30.662;2022-12-22T20:55:56;98696.88;;;2.05;97.59
53689;BME280;39583;54.682;30.662;2022-12-22T20:58:25;98697.88;;;2.04;97.59
53689;BME280;39583;54.682;30.662;2022-12-22T21:00:55;98695.22;;;2.04;97.68
53689;BME280;39583;54.682;30.662;2022-12-22T21:03:21;98698.25;;;2.01;97.65
53689;BME280;39583;54.682;30.662;2022-12-22T21:05:47;98694.13;;;1.98;97.64
53689;BME280;39583;54.682;30.662;2022-12-22T21:08:19;98693.31;;;1.98;97.66
53689;BME280;39583;54.682;30.662;2022-12-22T21:10:45;98688.19;;;1.96;97.89
53689;BME280;39583;54.682;30.662;2022-12-22T21:13:13;98693.13;;;1.99;98.04
53689;BME280;39583;54.682;30.662;2022-12-22T21:15:40;98690.09;;;2.02;98.20
53689;BME280;39583;54.682;30.662;2022-12-22T21:18:20;98693.19;;;2.06;98.29
53689;BME280;39583;54.682;30.662;2022-12-22T21:20:47;98696.66;;;2.06;98.31
53689;BME280;39583;54.682;30.662;2022-12-22T21:23:13;98697.69;;;2.05;98.16
53689;BME280;39583;54.682;30.662;2022-12-22T21:25:47;98698.69;;;2.04;98.22
53689;BME280;39583;54.682;30.662;2022-12-22T21:28:29;98694.41;;;2.03;98.42
53689;BME280;39583;54.682;30.662;2022-12-22T21:30:57;98691.28;;;2.00;98.34
53689;BME280;39583;54.682;30.662;2022-12-22T21:33:23;98697.03;;;2.03;98.10
53689;BME280;39583;54.682;30.662;2022-12-22T21:35:52;98693.56;;;2.03;98.25
53689;BME280;39583;54.682;30.662;2022-12-22T21:38:21;98679.41;;;1.96;98.15
53689;BME280;39583;54.682;30.662;2022-12-22T21:40:49;98691.28;;;2.00;97.99
53689;BME280;39583;54.682;30.662;2022-12-22T21:43:15;98690.47;;;1.99;98.36
53689;BME280;39583;54.682;30.662;2022-12-22T21:45:43;98684.16;;;2.00;98.11
53689;BME280;39583;54.682;30.662;2022-12-22T21:48:14;98677.81;;;2.01;98.38
53689;BME280;39583;54.682;30.662;2022-12-22T21:50:41;98658.69;;;1.91;98.28
53689;BME280;39583;54.682;30.662;2022-12-22T21:53:07;98668.84;;;2.02;98.19
53689;BME280;39583;54.682;30.662;2022-12-22T21:55:36;98669.66;;;2.03;98.01
53689;BME280;39583;54.682;30.662;2022-12-22T21:58:03;98660.69;;;2.04;98.20
53689;BME280;39583;54.682;30.662;2022-12-22T22:00:31;98659.88;;;2.03;98.00
53689;BME280;39583;54.682;30.662;2022-12-22T22:02:58;98662.72;;;2.02;98.17
53689;BME280;39583;54.682;30.662;2022-12-22T22:05:37;98656.41;;;2.03;97.92
53689;BME280;39583;54.682;30.662;2022-12-22T22:08:06;98655.56;;;2.02;97.93
53689;BME280;39583;54.682;30.662;2022-12-22T22:10:37;98662.72;;;2.02;97.72
53689;BME280;39583;54.682;30.662;2022-12-22T22:13:04;98660.44;;;1.99;97.96
53689;BME280;39583;54.682;30.662;2022-12-22T22:15:31;98652.03;;;1.95;97.52
53689;BME280;39583;54.682;30.662;2022-12-22T22:17:57;98654.22;;;1.92;97.36
53689;BME280;39583;54.682;30.662;2022-12-22T22:20:26;98651.38;;;1.93;97.58
53689;BME280;39583;54.682;30.662;2022-12-22T22:22:55;98648.53;;;1.95;97.67
53689;BME280;39583;54.682;30.662;2022-12-22T22:25:21;98644.50;;;1.99;97.63
53689;BME280;39583;54.682;30.662;2022-12-22T22:27:48;98649.19;;;1.97;97.35
53689;BME280;39583;54.682;30.662;2022-12-22T22:30:20;98623.81;;;1.80;97.09